createdAt,value
2023-04-24T00:00:57.040Z,44.94
2023-04-24T00:02:00.279Z,44.92
2023-04-24T00:03:04.382Z,44.91
2023-04-24T00:04:09.786Z,44.86
2023-04-24T00:05:17.732Z,44.81
2023-04-24T00:06:22.433Z,44.82
2023-04-24T00:07:25.322Z,44.80
2023-04-24T00:08:28.753Z,44.79
2023-04-24T00:09:31.474Z,44.79
2023-04-24T00:10:36.641Z,44.81
2023-04-24T00:11:39.628Z,44.66
2023-04-24T00:12:43.316Z,44.66
2023-04-24T00:13:47.393Z,44.77
2023-04-24T00:14:50.933Z,44.76
2023-04-24T00:15:54.620Z,44.75
2023-04-24T00:16:58.198Z,44.76
2023-04-24T00:19:15.824Z,44.72
2023-04-24T00:20:19.455Z,44.72
2023-04-24T00:21:22.111Z,44.71
2023-04-24T00:22:26.796Z,44.71
2023-04-24T00:23:29.408Z,44.72
2023-04-24T00:24:32.144Z,44.72
2023-04-24T00:25:35.049Z,44.72
2023-04-24T00:26:38.200Z,44.71
2023-04-24T00:27:41.442Z,44.72
2023-04-24T00:28:44.178Z,44.71
2023-04-24T00:29:48.774Z,44.71
2023-04-24T00:30:52.057Z,44.69
2023-04-24T00:31:55.511Z,44.70
2023-04-24T00:32:58.430Z,44.69
2023-04-24T00:34:03.689Z,44.69
2023-04-24T00:35:08.964Z,44.71
2023-04-24T00:36:14.176Z,44.67
2023-04-24T00:37:16.978Z,44.70
2023-04-24T00:38:22.486Z,44.70
2023-04-24T00:39:26.491Z,44.68
2023-04-24T00:40:29.788Z,44.68
2023-04-24T00:41:33.360Z,44.68
2023-04-24T00:42:36.340Z,44.72
2023-04-24T00:43:41.492Z,44.70
2023-04-24T00:44:44.777Z,44.72
2023-04-24T00:45:48.531Z,44.72
2023-04-24T00:46:54.367Z,44.71
2023-04-24T00:47:57.694Z,44.72
2023-04-24T00:49:01.301Z,44.71
2023-04-24T00:50:04.996Z,44.71
2023-04-24T00:51:08.668Z,44.70
2023-04-24T00:52:12.864Z,44.73
2023-04-24T00:53:16.223Z,44.86
2023-04-24T00:54:23.242Z,44.86
2023-04-24T00:55:27.318Z,44.72
2023-04-24T00:56:30.917Z,44.72
2023-04-24T00:57:33.504Z,44.73
2023-04-24T00:58:37.430Z,44.74
2023-04-24T00:59:42.232Z,44.72
2023-04-24T01:00:47.487Z,44.72
2023-04-24T01:01:50.535Z,44.72
2023-04-24T01:02:53.736Z,44.73
2023-04-24T01:03:56.658Z,44.71
2023-04-24T01:05:00.398Z,44.72
2023-04-24T01:06:03.796Z,44.71
2023-04-24T01:07:11.334Z,44.72
2023-04-24T01:08:15.402Z,44.73
2023-04-24T01:09:18.324Z,44.68
2023-04-24T01:10:21.987Z,44.70
2023-04-24T01:11:26.970Z,44.69
2023-04-24T01:12:29.961Z,44.67
2023-04-24T01:13:35.577Z,44.67
2023-04-24T01:14:39.561Z,44.71
2023-04-24T01:15:43.923Z,44.66
2023-04-24T01:16:47.911Z,44.66
2023-04-24T01:17:54.141Z,44.67
2023-04-24T01:18:57.306Z,44.66
2023-04-24T01:20:02.417Z,44.65
2023-04-24T01:21:07.952Z,44.66
2023-04-24T01:22:14.006Z,44.69
2023-04-24T01:23:18.919Z,44.67
2023-04-24T01:24:22.301Z,44.67
2023-04-24T01:25:26.309Z,44.67
2023-04-24T01:26:29.406Z,44.67
2023-04-24T01:27:32.143Z,44.69
2023-04-24T01:28:35.752Z,44.66
2023-04-24T01:29:41.393Z,44.66
2023-04-24T01:30:47.333Z,44.67
2023-04-24T01:31:50.941Z,44.66
2023-04-24T01:32:55.551Z,44.69
2023-04-24T01:35:11.534Z,44.64
2023-04-24T01:37:28.738Z,44.64
2023-04-24T01:38:31.475Z,44.67
2023-04-24T01:39:36.416Z,44.69
2023-04-24T01:40:40.340Z,44.66
2023-04-24T01:41:43.380Z,44.68
2023-04-24T01:42:46.789Z,44.65
2023-04-24T01:43:50.776Z,44.63
2023-04-24T01:44:56.908Z,44.63
2023-04-24T01:46:00.612Z,44.65
2023-04-24T01:47:03.928Z,44.67
2023-04-24T01:48:06.945Z,44.69
2023-04-24T01:49:09.892Z,44.65
2023-04-24T01:50:12.731Z,44.63
2023-04-24T01:52:30.774Z,44.63
2023-04-24T01:53:34.349Z,44.64
2023-04-24T01:54:38.078Z,44.61
2023-04-24T01:55:41.581Z,44.65
2023-04-24T01:56:44.613Z,44.63
2023-04-24T01:57:47.903Z,44.62
2023-04-24T01:58:51.809Z,44.62
2023-04-24T01:59:56.017Z,44.62
2023-04-24T02:00:59.813Z,44.62
2023-04-24T02:02:03.604Z,44.60
2023-04-24T02:03:06.543Z,44.58
2023-04-24T02:04:09.598Z,44.57
2023-04-24T02:05:12.355Z,44.58
2023-04-24T02:06:16.408Z,44.57
2023-04-24T02:07:19.980Z,44.57
2023-04-24T02:08:23.044Z,44.54
2023-04-24T02:09:25.759Z,44.55
2023-04-24T02:10:28.785Z,44.55
2023-04-24T02:11:31.803Z,44.60
2023-04-24T02:12:34.647Z,44.65
2023-04-24T02:13:39.241Z,44.58
2023-04-24T02:14:43.416Z,44.56
2023-04-24T02:15:46.533Z,44.58
2023-04-24T02:16:49.943Z,44.60
2023-04-24T02:17:53.085Z,44.57
2023-04-24T02:18:55.948Z,44.52
2023-04-24T02:20:00.641Z,44.54
2023-04-24T02:21:03.737Z,44.56
2023-04-24T02:22:09.554Z,44.55
2023-04-24T02:23:14.088Z,44.55
2023-04-24T02:24:17.367Z,44.61
2023-04-24T02:25:20.989Z,44.61
2023-04-24T02:26:25.088Z,44.60
2023-04-24T02:27:29.061Z,44.57
2023-04-24T02:28:31.729Z,44.57
2023-04-24T02:29:34.713Z,44.53
2023-04-24T02:30:39.300Z,44.54
2023-04-24T02:31:42.442Z,44.54
2023-04-24T02:32:45.486Z,44.49
2023-04-24T02:33:48.208Z,44.49
2023-04-24T02:34:52.250Z,44.51
2023-04-24T02:35:55.174Z,44.47
2023-04-24T02:36:58.190Z,44.50
2023-04-24T02:38:01.525Z,44.49
2023-04-24T02:39:05.565Z,44.50
2023-04-24T02:40:10.950Z,44.50
2023-04-24T02:41:13.867Z,44.50
2023-04-24T02:42:19.192Z,44.49
2023-04-24T02:43:22.249Z,44.45
2023-04-24T02:44:25.705Z,44.45
2023-04-24T02:45:28.675Z,44.42
2023-04-24T02:46:31.669Z,44.39
2023-04-24T02:47:41.075Z,44.42
2023-04-24T02:48:43.753Z,44.42
2023-04-24T02:49:47.102Z,44.42
2023-04-24T02:50:51.117Z,44.38
2023-04-24T02:51:56.083Z,44.37
2023-04-24T02:52:59.143Z,44.35
2023-04-24T02:54:02.360Z,44.39
2023-04-24T02:55:08.732Z,44.39
2023-04-24T02:56:13.331Z,44.33
2023-04-24T02:57:17.475Z,44.35
2023-04-24T02:58:20.396Z,44.35
2023-04-24T02:59:24.465Z,44.34
2023-04-24T03:00:27.419Z,44.33
2023-04-24T03:01:31.350Z,44.33
2023-04-24T03:02:35.244Z,44.35
2023-04-24T03:03:40.011Z,44.32
2023-04-24T03:04:44.449Z,44.29
2023-04-24T03:05:49.324Z,44.30
2023-04-24T03:06:55.188Z,44.32
2023-04-24T03:07:57.891Z,44.30
2023-04-24T03:09:01.088Z,43.96
2023-04-24T03:10:06.325Z,43.96
2023-04-24T03:11:09.211Z,44.28
2023-04-24T03:12:12.982Z,44.25
2023-04-24T03:13:16.571Z,44.28
2023-04-24T03:14:20.641Z,44.27
2023-04-24T03:15:23.897Z,44.24
2023-04-24T03:16:26.909Z,44.24
2023-04-24T03:17:32.111Z,44.22
2023-04-24T03:18:36.394Z,44.20
2023-04-24T03:19:40.720Z,44.19
2023-04-24T03:20:47.757Z,44.23
2023-04-24T03:21:51.636Z,44.27
2023-04-24T03:22:55.173Z,44.28
2023-04-24T03:23:59.846Z,44.30
2023-04-24T03:25:05.407Z,44.29
2023-04-24T03:26:09.496Z,44.30
2023-04-24T03:27:12.898Z,44.30
2023-04-24T03:28:32.636Z,44.33
2023-04-24T03:29:39.138Z,44.30
2023-04-24T03:30:41.855Z,44.27
2023-04-24T03:31:44.806Z,44.24
2023-04-24T03:32:48.677Z,44.23
2023-04-24T03:33:54.118Z,44.27
2023-04-24T03:34:57.201Z,44.27
2023-04-24T03:36:01.188Z,44.29
2023-04-24T03:37:06.113Z,44.27
2023-04-24T03:38:11.030Z,44.27
2023-04-24T03:39:33.476Z,44.29
2023-04-24T03:40:37.673Z,44.28
2023-04-24T03:41:42.972Z,44.29
2023-04-24T03:42:53.485Z,44.30
2023-04-24T03:43:56.929Z,44.31
2023-04-24T03:45:00.752Z,44.34
2023-04-24T03:46:05.460Z,44.36
2023-04-24T03:47:11.188Z,44.30
2023-04-24T03:48:14.197Z,44.32
2023-04-24T03:49:16.869Z,44.30
2023-04-24T03:50:20.811Z,44.30
2023-04-24T03:51:23.913Z,44.29
2023-04-24T03:52:28.699Z,44.29
2023-04-24T03:53:33.083Z,44.28
2023-04-24T03:54:36.097Z,44.27
2023-04-24T03:55:39.972Z,44.19
2023-04-24T03:56:43.486Z,44.21
2023-04-24T03:57:47.289Z,44.17
2023-04-24T03:58:52.342Z,44.18
2023-04-24T03:59:55.652Z,44.18
2023-04-24T04:00:59.021Z,44.12
2023-04-24T04:02:16.745Z,44.16
2023-04-24T04:03:20.544Z,44.11
2023-04-24T04:04:23.562Z,44.14
2023-04-24T04:05:26.717Z,44.13
2023-04-24T04:06:31.235Z,44.14
2023-04-24T04:07:35.125Z,44.11
2023-04-24T04:08:37.893Z,44.12
2023-04-24T04:09:41.114Z,44.09
2023-04-24T04:10:44.448Z,44.09
2023-04-24T04:11:47.859Z,44.12
2023-04-24T04:12:50.638Z,44.12
2023-04-24T04:13:54.603Z,44.10
2023-04-24T04:14:58.079Z,44.12
2023-04-24T04:16:01.923Z,44.11
2023-04-24T04:17:05.332Z,44.07
2023-04-24T04:18:10.114Z,44.09
2023-04-24T04:19:13.463Z,44.07
2023-04-24T04:20:17.064Z,44.09
2023-04-24T04:21:20.391Z,44.05
2023-04-24T04:22:23.793Z,44.07
2023-04-24T04:23:29.608Z,44.09
2023-04-24T04:24:44.861Z,44.05
2023-04-24T04:25:49.211Z,44.06
2023-04-24T04:26:52.893Z,44.05
2023-04-24T04:28:02.866Z,44.06
2023-04-24T04:29:07.124Z,44.09
2023-04-24T04:31:26.489Z,44.11
2023-04-24T04:32:29.939Z,44.16
2023-04-24T04:33:46.032Z,44.25
2023-04-24T04:34:50.240Z,44.34
2023-04-24T04:35:54.322Z,44.39
2023-04-24T04:38:11.374Z,44.48
2023-04-24T04:39:17.074Z,44.51
2023-04-24T04:40:22.369Z,44.50
2023-04-24T04:41:27.315Z,44.56
2023-04-24T04:42:30.050Z,44.54
2023-04-24T04:43:34.517Z,44.54
2023-04-24T04:44:38.995Z,44.55
2023-04-24T04:45:44.500Z,44.56
2023-04-24T04:46:56.738Z,44.58
2023-04-24T04:48:03.351Z,44.54
2023-04-24T04:49:06.868Z,44.51
2023-04-24T04:50:11.099Z,44.51
2023-04-24T04:51:13.941Z,44.52
2023-04-24T04:52:30.133Z,44.51
2023-04-24T04:53:35.433Z,44.50
2023-04-24T04:54:38.913Z,44.49
2023-04-24T04:55:42.042Z,44.44
2023-04-24T04:56:47.807Z,44.42
2023-04-24T04:57:53.520Z,44.44
2023-04-24T04:58:57.740Z,44.42
2023-04-24T05:00:03.977Z,44.42
2023-04-24T05:01:10.868Z,44.38
2023-04-24T05:02:16.530Z,44.36
2023-04-24T05:03:21.805Z,44.33
2023-04-24T05:04:28.264Z,44.30
2023-04-24T05:05:34.780Z,44.29
2023-04-24T05:06:38.875Z,44.29
2023-04-24T05:07:41.797Z,44.27
2023-04-24T05:08:46.080Z,44.22
2023-04-24T05:09:53.259Z,44.24
2023-04-24T05:11:04.752Z,44.19
2023-04-24T05:12:08.483Z,44.21
2023-04-24T05:13:14.299Z,44.21
2023-04-24T05:14:19.464Z,44.28
2023-04-24T05:15:23.849Z,44.48
2023-04-24T05:16:27.412Z,44.52
2023-04-24T05:17:30.755Z,44.54
2023-04-24T05:18:34.268Z,44.58
2023-04-24T05:19:39.022Z,44.57
2023-04-24T05:20:44.217Z,44.53
2023-04-24T05:21:47.700Z,44.53
2023-04-24T05:22:51.006Z,44.57
2023-04-24T05:23:55.024Z,44.58
2023-04-24T05:25:00.018Z,44.58
2023-04-24T05:26:11.442Z,44.61
2023-04-24T05:27:14.134Z,44.61
2023-04-24T05:28:18.389Z,44.59
2023-04-24T05:29:24.072Z,44.63
2023-04-24T05:30:27.224Z,44.64
2023-04-24T05:31:32.050Z,44.65
2023-04-24T05:32:36.788Z,44.67
2023-04-24T05:33:40.186Z,44.69
2023-04-24T05:34:44.137Z,44.73
2023-04-24T05:35:47.985Z,44.74
2023-04-24T05:36:51.567Z,44.75
2023-04-24T05:37:55.126Z,44.76
2023-04-24T05:38:58.430Z,44.76
2023-04-24T05:40:02.504Z,44.85
2023-04-24T05:41:05.985Z,44.90
2023-04-24T05:42:09.432Z,44.87
2023-04-24T05:43:13.069Z,44.87
2023-04-24T05:44:17.378Z,44.85
2023-04-24T05:45:20.456Z,44.83
2023-04-24T05:46:23.893Z,44.80
2023-04-24T05:47:40.323Z,44.81
2023-04-24T05:48:46.949Z,44.84
2023-04-24T05:49:50.516Z,44.83
2023-04-24T05:50:53.916Z,44.86
2023-04-24T05:51:58.022Z,44.92
2023-04-24T05:53:02.793Z,44.95
2023-04-24T05:54:06.922Z,44.95
2023-04-24T05:55:09.639Z,44.96
2023-04-24T05:56:16.028Z,44.96
2023-04-24T05:57:20.872Z,44.96
2023-04-24T05:58:28.686Z,45.00
2023-04-24T05:59:31.707Z,45.02
2023-04-24T06:00:36.205Z,45.04
2023-04-24T06:01:42.273Z,45.04
2023-04-24T06:02:47.810Z,45.10
2023-04-24T06:03:51.071Z,45.09
2023-04-24T06:04:54.312Z,45.05
2023-04-24T06:05:59.128Z,45.08
2023-04-24T06:07:03.767Z,45.11
2023-04-24T06:08:19.784Z,45.09
2023-04-24T06:09:23.468Z,45.11
2023-04-24T06:10:27.328Z,45.10
2023-04-24T06:11:30.551Z,45.16
2023-04-24T06:12:33.456Z,45.13
2023-04-24T06:13:38.232Z,45.14
2023-04-24T06:14:49.118Z,45.13
2023-04-24T06:15:54.468Z,45.11
2023-04-24T06:16:59.260Z,45.12
2023-04-24T06:18:05.217Z,45.15
2023-04-24T06:19:08.557Z,45.14
2023-04-24T06:20:13.202Z,45.17
2023-04-24T06:21:17.300Z,45.24
2023-04-24T06:22:21.436Z,44.95
2023-04-24T06:23:24.256Z,44.95
2023-04-24T06:24:29.792Z,45.17
2023-04-24T06:25:32.396Z,45.15
2023-04-24T06:26:35.622Z,45.25
2023-04-24T06:27:39.364Z,45.21
2023-04-24T06:28:45.225Z,45.21
2023-04-24T06:29:53.984Z,45.22
2023-04-24T06:30:57.199Z,45.21
2023-04-24T06:31:59.976Z,45.26
2023-04-24T06:33:13.332Z,45.23
2023-04-24T06:34:10.594Z,45.17
2023-04-24T06:35:13.681Z,45.11
2023-04-24T06:36:17.945Z,45.06
2023-04-24T06:37:21.803Z,45.02
2023-04-24T06:38:24.781Z,44.99
2023-04-24T06:39:27.325Z,44.96
2023-04-24T06:40:31.690Z,44.94
2023-04-24T06:41:35.253Z,44.89
2023-04-24T06:42:38.802Z,44.86
2023-04-24T06:43:44.125Z,44.82
2023-04-24T06:44:47.418Z,44.77
2023-04-24T06:45:51.822Z,44.78
2023-04-24T06:46:54.997Z,44.72
2023-04-24T06:47:57.908Z,44.72
2023-04-24T06:49:01.183Z,44.70
2023-04-24T06:51:21.422Z,44.62
2023-04-24T06:52:37.928Z,44.61
2023-04-24T06:53:40.789Z,44.61
2023-04-24T06:54:44.505Z,44.58
2023-04-24T06:55:47.986Z,44.53
2023-04-24T06:56:53.019Z,44.53
2023-04-24T06:59:08.533Z,44.50
2023-04-24T07:00:14.001Z,44.54
2023-04-24T07:01:19.165Z,44.51
2023-04-24T07:02:22.156Z,44.55
2023-04-24T07:03:27.449Z,44.51
2023-04-24T07:04:32.613Z,44.52
2023-04-24T07:05:38.068Z,44.53
2023-04-24T07:06:41.090Z,44.51
2023-04-24T07:07:45.400Z,44.49
2023-04-24T07:08:48.106Z,44.50
2023-04-24T07:09:52.824Z,44.49
2023-04-24T07:10:58.101Z,44.47
2023-04-24T07:12:01.189Z,44.48
2023-04-24T07:13:06.610Z,44.41
2023-04-24T07:14:10.816Z,44.55
2023-04-24T07:15:14.740Z,44.61
2023-04-24T07:16:18.348Z,44.78
2023-04-24T07:17:21.136Z,44.91
2023-04-24T07:18:25.336Z,44.94
2023-04-24T07:19:28.475Z,45.04
2023-04-24T07:20:32.924Z,45.14
2023-04-24T07:21:36.696Z,45.17
2023-04-24T07:22:43.501Z,45.27
2023-04-24T07:23:47.342Z,45.29
2023-04-24T07:24:51.680Z,45.29
2023-04-24T07:25:54.952Z,45.36
2023-04-24T07:26:58.056Z,45.35
2023-04-24T07:28:02.199Z,45.36
2023-04-24T07:29:06.204Z,45.35
2023-04-24T07:30:11.992Z,45.40
2023-04-24T07:31:16.177Z,45.40
2023-04-24T07:32:20.217Z,45.68
2023-04-24T07:33:23.620Z,45.68
2023-04-24T07:34:28.466Z,45.44
2023-04-24T07:35:31.832Z,45.45
2023-04-24T07:36:35.159Z,45.47
2023-04-24T07:37:38.213Z,45.51
2023-04-24T07:38:41.524Z,45.48
2023-04-24T07:39:44.764Z,45.51
2023-04-24T07:40:49.139Z,45.50
2023-04-24T07:41:52.484Z,45.45
2023-04-24T07:42:55.178Z,45.44
2023-04-24T07:43:58.434Z,45.39
2023-04-24T07:45:01.261Z,45.37
2023-04-24T07:46:04.817Z,45.31
2023-04-24T07:47:09.261Z,45.27
2023-04-24T07:49:28.219Z,45.16
2023-04-24T07:50:31.793Z,45.10
2023-04-24T07:51:36.695Z,44.68
2023-04-24T07:52:39.295Z,44.68
2023-04-24T07:53:43.652Z,44.90
2023-04-24T07:54:46.692Z,44.81
2023-04-24T07:55:49.786Z,44.78
2023-04-24T07:56:52.915Z,44.75
2023-04-24T07:57:57.168Z,44.69
2023-04-24T07:59:02.018Z,44.69
2023-04-24T08:00:06.167Z,44.61
2023-04-24T08:02:15.250Z,44.49
2023-04-24T08:03:20.132Z,44.39
2023-04-24T08:04:23.601Z,44.37
2023-04-24T08:05:28.769Z,44.39
2023-04-24T08:06:33.378Z,44.32
2023-04-24T08:07:36.417Z,44.30
2023-04-24T08:08:39.163Z,44.33
2023-04-24T08:09:42.859Z,44.38
2023-04-24T08:10:46.567Z,44.43
2023-04-24T08:11:50.201Z,44.28
2023-04-24T08:12:53.344Z,44.22
2023-04-24T08:13:56.270Z,44.23
2023-04-24T08:14:59.010Z,44.20
2023-04-24T08:16:01.730Z,44.18
2023-04-24T08:17:05.740Z,44.27
2023-04-24T08:18:08.560Z,44.13
2023-04-24T08:19:11.532Z,44.15
2023-04-24T08:20:14.569Z,43.95
2023-04-24T08:21:22.234Z,43.93
2023-04-24T08:22:25.850Z,43.96
2023-04-24T08:23:31.075Z,43.96
2023-04-24T08:24:34.116Z,43.87
2023-04-24T08:25:36.811Z,43.90
2023-04-24T08:26:40.230Z,43.76
2023-04-24T08:27:43.131Z,43.72
2023-04-24T08:28:45.707Z,43.66
2023-04-24T08:29:49.338Z,43.73
2023-04-24T08:30:55.687Z,43.73
2023-04-24T08:31:58.943Z,43.35
2023-04-24T08:33:02.014Z,43.60
2023-04-24T08:34:04.891Z,43.58
2023-04-24T08:36:30.438Z,44.12
2023-04-24T08:37:29.304Z,44.49
2023-04-24T08:39:46.027Z,46.08
2023-04-24T08:40:50.622Z,46.18
2023-04-24T08:41:53.446Z,46.21
2023-04-24T08:42:57.466Z,45.77
2023-04-24T08:44:00.117Z,44.78
2023-04-24T08:45:04.868Z,45.07
2023-04-24T08:46:11.818Z,44.92
2023-04-24T08:47:15.861Z,44.94
2023-04-24T08:48:30.399Z,44.90
2023-04-24T08:49:25.302Z,44.30
2023-04-24T08:50:30.140Z,44.47
2023-04-24T08:51:32.881Z,43.88
2023-04-24T08:52:35.717Z,44.20
2023-04-24T08:53:39.202Z,44.32
2023-04-24T08:54:44.032Z,44.24
2023-04-24T08:55:48.037Z,44.17
2023-04-24T08:56:51.060Z,43.97
2023-04-24T08:57:54.873Z,43.41
2023-04-24T08:58:58.111Z,43.72
2023-04-24T09:00:01.118Z,43.72
2023-04-24T09:01:04.292Z,43.71
2023-04-24T09:02:08.220Z,43.39
2023-04-24T09:03:11.884Z,43.36
2023-04-24T09:04:16.246Z,43.43
2023-04-24T09:05:20.166Z,43.36
2023-04-24T09:06:23.150Z,43.06
2023-04-24T09:07:26.612Z,43.22
2023-04-24T09:08:30.010Z,43.21
2023-04-24T09:09:33.206Z,42.97
2023-04-24T09:10:36.644Z,43.13
2023-04-24T09:11:40.423Z,43.08
2023-04-24T09:12:43.458Z,42.75
2023-04-24T09:13:46.490Z,42.97
2023-04-24T09:14:51.508Z,42.67
2023-04-24T09:15:54.765Z,42.98
2023-04-24T09:16:58.705Z,43.19
2023-04-24T09:18:01.974Z,43.32
2023-04-24T09:19:04.705Z,43.33
2023-04-24T09:20:08.868Z,43.51
2023-04-24T09:21:12.080Z,43.49
2023-04-24T09:22:15.647Z,43.51
2023-04-24T09:23:18.693Z,43.08
2023-04-24T09:24:35.776Z,43.25
2023-04-24T09:25:40.012Z,42.09
2023-04-24T09:26:42.928Z,43.06
2023-04-24T09:27:46.006Z,43.00
2023-04-24T09:28:49.117Z,42.97
2023-04-24T09:31:13.444Z,42.81
2023-04-24T09:32:23.259Z,42.95
2023-04-24T09:33:26.164Z,43.27
2023-04-24T09:34:29.915Z,43.32
2023-04-24T09:35:33.441Z,43.42
2023-04-24T09:36:41.379Z,43.68
2023-04-24T09:37:46.491Z,43.25
2023-04-24T09:38:49.806Z,43.71
2023-04-24T09:40:14.394Z,43.56
2023-04-24T09:41:17.977Z,43.16
2023-04-24T09:42:20.758Z,43.44
2023-04-24T09:44:37.630Z,43.61
2023-04-24T09:45:40.459Z,43.23
2023-04-24T09:46:45.089Z,43.23
2023-04-24T09:49:11.006Z,42.95
2023-04-24T09:50:15.851Z,42.93
2023-04-24T09:51:20.607Z,42.95
2023-04-24T09:53:39.797Z,42.76
2023-04-24T09:54:42.996Z,42.55
2023-04-24T09:55:48.269Z,42.41
2023-04-24T09:56:51.280Z,41.66
2023-04-24T09:57:58.596Z,42.16
2023-04-24T09:59:07.533Z,41.93
2023-04-24T10:00:13.348Z,41.81
2023-04-24T10:01:16.995Z,41.97
2023-04-24T10:02:20.551Z,41.99
2023-04-24T10:03:27.491Z,42.08
2023-04-24T10:04:31.743Z,42.07
2023-04-24T10:05:39.181Z,42.15
2023-04-24T10:06:44.123Z,42.15
2023-04-24T10:07:50.032Z,42.06
2023-04-24T10:08:52.898Z,42.06
2023-04-24T10:09:56.205Z,42.01
2023-04-24T10:10:58.914Z,41.84
2023-04-24T10:12:03.231Z,41.88
2023-04-24T10:13:05.916Z,41.89
2023-04-24T10:14:11.767Z,41.90
2023-04-24T10:15:14.987Z,41.88
2023-04-24T10:17:30.707Z,41.84
2023-04-24T10:18:33.573Z,41.93
2023-04-24T10:19:36.161Z,42.15
2023-04-24T10:20:40.471Z,42.10
2023-04-24T10:21:46.839Z,41.63
2023-04-24T10:23:02.528Z,42.03
2023-04-24T10:24:07.877Z,41.97
2023-04-24T10:25:10.970Z,41.61
2023-04-24T10:26:18.173Z,41.59
2023-04-24T10:27:21.669Z,41.70
2023-04-24T10:28:24.822Z,41.43
2023-04-24T10:29:27.558Z,41.54
2023-04-24T10:30:34.395Z,41.22
2023-04-24T10:31:40.992Z,41.44
2023-04-24T10:32:43.761Z,41.25
2023-04-24T10:33:46.662Z,41.48
2023-04-24T10:34:49.493Z,41.53
2023-04-24T10:35:52.209Z,41.30
2023-04-24T10:36:57.857Z,41.37
2023-04-24T10:38:11.218Z,41.49
2023-04-24T10:39:15.853Z,41.60
2023-04-24T10:40:21.184Z,41.44
2023-04-24T10:42:40.821Z,41.39
2023-04-24T10:43:44.093Z,41.44
2023-04-24T10:46:04.469Z,41.47
2023-04-24T10:48:26.953Z,41.13
2023-04-24T10:49:30.849Z,41.28
2023-04-24T10:50:45.673Z,40.93
2023-04-24T10:51:53.521Z,41.12
2023-04-24T10:53:09.667Z,41.41
2023-04-24T10:56:05.926Z,41.89
2023-04-24T10:57:31.836Z,42.67
2023-04-24T10:58:44.435Z,42.77
2023-04-24T10:59:47.913Z,42.91
2023-04-24T11:01:01.149Z,43.34
2023-04-24T11:02:04.335Z,43.49
2023-04-24T11:03:25.954Z,43.43
2023-04-24T11:04:33.343Z,43.51
2023-04-24T11:05:54.691Z,43.43
2023-04-24T11:06:58.681Z,43.03
2023-04-24T11:08:19.080Z,42.98
2023-04-24T11:09:22.370Z,43.13
2023-04-24T11:10:29.242Z,42.61
2023-04-24T11:11:32.606Z,42.80
2023-04-24T11:12:38.063Z,43.04
2023-04-24T11:14:00.129Z,42.78
2023-04-24T11:15:04.150Z,42.77
2023-04-24T11:16:26.120Z,42.31
2023-04-24T11:17:37.746Z,42.72
2023-04-24T11:18:45.039Z,42.18
2023-04-24T11:19:52.715Z,41.88
2023-04-24T11:21:01.712Z,42.72
2023-04-24T11:23:19.097Z,42.72
2023-04-24T11:24:28.316Z,42.26
2023-04-24T11:25:34.040Z,42.60
2023-04-24T11:26:38.768Z,42.64
2023-04-24T11:27:46.421Z,42.74
2023-04-24T11:28:50.858Z,42.50
2023-04-24T11:31:38.559Z,42.86
2023-04-24T11:32:42.280Z,42.92
2023-04-24T11:33:46.156Z,43.12
2023-04-24T11:34:50.190Z,43.29
2023-04-24T11:35:53.693Z,43.27
2023-04-24T11:36:57.010Z,43.32
2023-04-24T11:39:06.557Z,43.53
2023-04-24T11:40:12.616Z,43.61
2023-04-24T11:41:15.327Z,43.61
2023-04-24T11:42:18.692Z,43.71
2023-04-24T11:43:21.860Z,43.73
2023-04-24T11:44:25.686Z,43.77
2023-04-24T11:45:30.221Z,43.82
2023-04-24T11:46:33.361Z,43.84
2023-04-24T11:47:36.412Z,43.92
2023-04-24T11:48:43.875Z,43.95
2023-04-24T11:49:47.786Z,43.98
2023-04-24T11:50:50.937Z,44.00
2023-04-24T11:53:09.532Z,44.06
2023-04-24T11:54:12.729Z,44.04
2023-04-24T11:55:19.196Z,44.05
2023-04-24T11:56:23.877Z,44.06
2023-04-24T11:57:31.813Z,44.11
2023-04-24T11:58:41.345Z,44.17
2023-04-24T11:59:44.265Z,44.18
2023-04-24T12:00:51.031Z,44.16
2023-04-24T12:01:54.664Z,44.15
2023-04-24T12:03:11.958Z,44.11
2023-04-24T12:04:16.983Z,44.11
2023-04-24T12:05:26.450Z,44.06
2023-04-24T12:06:31.213Z,44.04
2023-04-24T12:07:43.648Z,44.01
2023-04-24T12:08:47.931Z,44.04
2023-04-24T12:09:59.209Z,44.03
2023-04-24T12:11:05.307Z,44.01
2023-04-24T12:12:08.030Z,43.95
2023-04-24T12:13:12.221Z,44.03
2023-04-24T12:14:14.937Z,44.04
2023-04-24T12:15:20.969Z,44.11
2023-04-24T12:16:24.913Z,44.10
2023-04-24T12:17:33.328Z,44.09
2023-04-24T12:18:37.941Z,44.09
2023-04-24T12:19:46.348Z,44.09
2023-04-24T12:20:49.953Z,44.07
2023-04-24T12:22:08.409Z,44.08
2023-04-24T12:23:11.416Z,44.04
2023-04-24T12:24:14.454Z,44.01
2023-04-24T12:25:20.311Z,44.03
2023-04-24T12:26:23.650Z,44.04
2023-04-24T12:27:26.549Z,44.06
2023-04-24T12:28:38.260Z,44.10
2023-04-24T12:29:57.106Z,44.12
2023-04-24T12:32:18.406Z,44.17
2023-04-24T12:33:22.214Z,44.15
2023-04-24T12:34:26.797Z,44.16
2023-04-24T12:35:32.257Z,44.16
2023-04-24T12:36:36.932Z,44.17
2023-04-24T12:37:45.813Z,44.19
2023-04-24T12:38:48.884Z,44.19
2023-04-24T12:41:21.027Z,44.26
2023-04-24T12:43:52.364Z,44.24
2023-04-24T12:46:17.200Z,44.25
2023-04-24T12:47:20.798Z,44.35
2023-04-24T12:48:28.997Z,44.38
2023-04-24T12:50:50.793Z,44.42
2023-04-24T12:51:54.418Z,44.39
2023-04-24T12:52:57.284Z,44.39
2023-04-24T12:54:00.933Z,44.39
2023-04-24T12:55:05.403Z,44.39
2023-04-24T12:56:09.286Z,44.36
2023-04-24T12:57:13.151Z,44.04
2023-04-24T12:58:19.810Z,44.04
2023-04-24T12:59:23.626Z,44.20
2023-04-24T13:00:26.501Z,44.18
2023-04-24T13:01:30.290Z,44.14
2023-04-24T13:02:34.476Z,44.12
2023-04-24T13:03:37.633Z,44.08
2023-04-24T13:04:41.164Z,44.10
2023-04-24T13:05:45.475Z,44.13
2023-04-24T13:06:48.870Z,44.14
2023-04-24T13:07:52.877Z,44.17
2023-04-24T13:08:57.851Z,44.23
2023-04-24T13:10:01.370Z,44.31
2023-04-24T13:11:07.145Z,44.27
2023-04-24T13:12:10.985Z,44.34
2023-04-24T13:13:18.802Z,44.35
2023-04-24T13:14:23.401Z,44.36
2023-04-24T13:15:26.450Z,44.40
2023-04-24T13:16:30.447Z,44.50
2023-04-24T13:17:34.302Z,44.59
2023-04-24T13:18:38.984Z,44.66
2023-04-24T13:19:42.696Z,44.78
2023-04-24T13:20:48.379Z,44.91
2023-04-24T13:21:51.261Z,44.94
2023-04-24T13:22:54.484Z,44.99
2023-04-24T13:23:57.578Z,45.00
2023-04-24T13:25:01.931Z,45.08
2023-04-24T13:26:06.196Z,45.08
2023-04-24T13:27:10.796Z,45.08
2023-04-24T13:29:25.680Z,45.26
2023-04-24T13:30:29.145Z,45.32
2023-04-24T13:31:33.314Z,45.38
2023-04-24T13:32:38.612Z,45.36
2023-04-24T13:33:42.457Z,45.36
2023-04-24T13:34:46.444Z,45.47
2023-04-24T13:35:50.458Z,45.49
2023-04-24T13:36:54.774Z,45.41
2023-04-24T13:38:00.505Z,45.40
2023-04-24T13:39:07.052Z,45.48
2023-04-24T13:40:11.782Z,45.50
2023-04-24T13:41:14.482Z,45.47
2023-04-24T13:42:17.991Z,45.38
2023-04-24T13:43:21.804Z,45.49
2023-04-24T13:44:24.817Z,45.58
2023-04-24T13:45:28.084Z,45.68
2023-04-24T13:46:32.456Z,45.70
2023-04-24T13:47:37.066Z,45.70
2023-04-24T13:48:41.050Z,45.75
2023-04-24T13:50:55.933Z,45.65
2023-04-24T13:51:59.907Z,45.68
2023-04-24T13:53:03.105Z,45.71
2023-04-24T13:54:06.109Z,45.73
2023-04-24T13:55:09.546Z,45.69
2023-04-24T13:56:15.045Z,45.72
2023-04-24T13:57:18.271Z,45.80
2023-04-24T13:58:22.300Z,45.69
2023-04-24T13:59:25.526Z,45.65
2023-04-24T14:00:28.845Z,45.64
2023-04-24T14:02:44.578Z,45.65
2023-04-24T14:03:47.788Z,45.61
2023-04-24T14:04:51.736Z,45.58
2023-04-24T14:07:07.070Z,45.47
2023-04-24T14:08:09.899Z,45.41
2023-04-24T14:09:13.543Z,45.38
2023-04-24T14:10:18.154Z,45.34
2023-04-24T14:11:20.920Z,45.27
2023-04-24T14:12:23.716Z,45.23
2023-04-24T14:13:26.771Z,45.17
2023-04-24T14:14:30.419Z,45.13
2023-04-24T14:15:46.685Z,45.10
2023-04-24T14:16:51.535Z,45.03
2023-04-24T14:17:55.166Z,44.99
2023-04-24T14:18:58.383Z,44.87
2023-04-24T14:20:01.247Z,44.86
2023-04-24T14:21:05.613Z,44.86
2023-04-24T14:22:08.658Z,44.85
2023-04-24T14:23:11.527Z,44.81
2023-04-24T14:24:14.583Z,44.78
2023-04-24T14:25:18.538Z,44.77
2023-04-24T14:26:22.253Z,44.76
2023-04-24T14:27:25.766Z,44.71
2023-04-24T14:28:42.400Z,44.70
2023-04-24T14:29:46.589Z,44.66
2023-04-24T14:30:49.907Z,44.94
2023-04-24T14:31:53.109Z,44.94
2023-04-24T14:32:57.214Z,44.57
2023-04-24T14:34:00.118Z,44.50
2023-04-24T14:35:02.948Z,44.42
2023-04-24T14:36:06.678Z,44.42
2023-04-24T14:37:09.529Z,44.38